sensor_id;sensor_type;location;lat;lon;timestamp;pressure;altitude;pressure_sealevel;temperature;humidity
30708;BME280;17458;48.958;8.284;2023-04-24T00:02:24;99263.84;;;14.16;67.64
30708;BME280;17458;48.958;8.284;2023-04-24T00:05:09;99268.41;;;14.23;68.04
30708;BME280;17458;48.958;8.284;2023-04-24T00:07:53;99271.00;;;14.20;68.70
30708;BME280;17458;48.958;8.284;2023-04-24T00:10:38;99262.78;;;14.56;67.41
30708;BME280;17458;48.958;8.284;2023-04-24T00:13:22;99257.28;;;14.45;67.11
30708;BME280;17458;48.958;8.284;2023-04-24T00:16:06;99255.66;;;14.57;67.04
30708;BME280;17458;48.958;8.284;2023-04-24T00:18:50;99258.44;;;14.64;66.81
30708;BME280;17458;48.958;8.284;2023-04-24T00:21:36;99248.78;;;14.71;66.75
30708;BME280;17458;48.958;8.284;2023-04-24T00:24:21;99250.22;;;14.50;66.92
30708;BME280;17458;48.958;8.284;2023-04-24T00:27:05;99251.34;;;14.65;67.00
30708;BME280;17458;48.958;8.284;2023-04-24T00:29:49;99257.25;;;14.44;67.78
30708;BME280;17458;48.958;8.284;2023-04-24T00:32:34;99261.72;;;14.46;68.12
30708;BME280;17458;48.958;8.284;2023-04-24T00:35:17;99256.78;;;14.21;68.54
30708;BME280;17458;48.958;8.284;2023-04-24T00:38:03;99257.81;;;14.28;68.51
30708;BME280;17458;48.958;8.284;2023-04-24T00:40:48;99263.47;;;14.43;68.02
30708;BME280;17458;48.958;8.284;2023-04-24T00:43:34;99262.72;;;14.03;69.36
30708;BME280;17458;48.958;8.284;2023-04-24T00:46:18;99257.81;;;14.28;68.72
30708;BME280;17458;48.958;8.284;2023-04-24T00:49:04;99258.97;;;14.42;68.03
30708;BME280;17458;48.958;8.284;2023-04-24T00:51:48;99262.88;;;14.62;67.48
30708;BME280;17458;48.958;8.284;2023-04-24T00:54:35;99259.78;;;14.39;68.34
30708;BME280;17458;48.958;8.284;2023-04-24T00:57:19;99256.19;;;14.37;68.29
30708;BME280;17458;48.958;8.284;2023-04-24T01:00:05;99256.41;;;14.48;68.39
30708;BME280;17458;48.958;8.284;2023-04-24T01:02:49;99263.47;;;14.46;67.66
30708;BME280;17458;48.958;8.284;2023-04-24T01:05:35;99264.41;;;14.48;67.87
30708;BME280;17458;48.958;8.284;2023-04-24T01:08:20;99264.56;;;14.56;67.68
30708;BME280;17458;48.958;8.284;2023-04-24T01:11:06;99257.28;;;14.48;67.87
30708;BME280;17458;48.958;8.284;2023-04-24T01:13:51;99251.03;;;14.46;68.36
30708;BME280;17458;48.958;8.284;2023-04-24T01:16:36;99255.38;;;14.40;68.77
30708;BME280;17458;48.958;8.284;2023-04-24T01:19:22;99256.50;;;14.54;68.07
30708;BME280;17458;48.958;8.284;2023-04-24T01:22:11;99255.72;;;14.60;68.08
30708;BME280;17458;48.958;8.284;2023-04-24T01:24:55;99254.28;;;14.32;69.30
30708;BME280;17458;48.958;8.284;2023-04-24T01:27:40;99252.63;;;14.37;68.96
30708;BME280;17458;48.958;8.284;2023-04-24T01:30:24;99252.53;;;14.32;68.83
30708;BME280;17458;48.958;8.284;2023-04-24T01:33:08;99251.94;;;14.48;69.09
30708;BME280;17458;48.958;8.284;2023-04-24T01:35:52;99260.84;;;14.47;69.74
30708;BME280;17458;48.958;8.284;2023-04-24T01:38:37;99255.72;;;14.61;69.99
30708;BME280;17458;48.958;8.284;2023-04-24T01:41:21;99257.63;;;14.18;71.38
30708;BME280;17458;48.958;8.284;2023-04-24T01:44:05;99253.88;;;14.56;70.39
30708;BME280;17458;48.958;8.284;2023-04-24T01:46:49;99252.34;;;14.22;71.22
30708;BME280;17458;48.958;8.284;2023-04-24T01:49:34;99249.19;;;14.42;70.60
30708;BME280;17458;48.958;8.284;2023-04-24T01:52:18;99248.03;;;14.28;70.99
30708;BME280;17458;48.958;8.284;2023-04-24T01:55:03;99248.97;;;14.30;71.15
30708;BME280;17458;48.958;8.284;2023-04-24T01:57:48;99246.69;;;14.03;72.33
30708;BME280;17458;48.958;8.284;2023-04-24T02:00:32;99231.81;;;14.17;71.76
30708;BME280;17458;48.958;8.284;2023-04-24T02:03:16;99233.47;;;13.64;74.14
30708;BME280;17458;48.958;8.284;2023-04-24T02:06:00;99223.34;;;13.93;73.12
30708;BME280;17458;48.958;8.284;2023-04-24T02:08:44;99229.22;;;13.72;73.56
30708;BME280;17458;48.958;8.284;2023-04-24T02:11:28;99237.78;;;14.03;72.77
30708;BME280;17458;48.958;8.284;2023-04-24T02:14:12;99232.13;;;13.86;73.48
30708;BME280;17458;48.958;8.284;2023-04-24T02:16:57;99233.00;;;13.85;73.71
30708;BME280;17458;48.958;8.284;2023-04-24T02:19:41;99231.31;;;13.92;73.65
30708;BME280;17458;48.958;8.284;2023-04-24T02:22:25;99232.44;;;14.03;73.84
30708;BME280;17458;48.958;8.284;2023-04-24T02:25:09;99237.44;;;14.34;72.37
30708;BME280;17458;48.958;8.284;2023-04-24T02:27:53;99235.91;;;14.45;72.15
30708;BME280;17458;48.958;8.284;2023-04-24T02:30:37;99239.22;;;14.35;72.31
30708;BME280;17458;48.958;8.284;2023-04-24T02:33:21;99241.91;;;14.35;73.03
30708;BME280;17458;48.958;8.284;2023-04-24T02:36:05;99248.66;;;14.13;73.38
30708;BME280;17458;48.958;8.284;2023-04-24T02:38:49;99253.28;;;14.24;73.47
30708;BME280;17458;48.958;8.284;2023-04-24T02:41:33;99260.31;;;14.17;73.70
30708;BME280;17458;48.958;8.284;2023-04-24T02:44:17;99273.53;;;14.11;74.47
30708;BME280;17458;48.958;8.284;2023-04-24T02:47:01;99282.94;;;14.39;74.32
30708;BME280;17458;48.958;8.284;2023-04-24T02:49:45;99285.94;;;14.09;76.23
30708;BME280;17458;48.958;8.284;2023-04-24T02:52:29;99293.66;;;13.94;77.69
30708;BME280;17458;48.958;8.284;2023-04-24T02:55:13;99300.56;;;13.82;78.30
30708;BME280;17458;48.958;8.284;2023-04-24T02:57:57;99299.72;;;13.43;80.16
30708;BME280;17458;48.958;8.284;2023-04-24T03:00:41;99298.50;;;13.27;80.48
30708;BME280;17458;48.958;8.284;2023-04-24T03:03:25;99309.56;;;13.45;79.71
30708;BME280;17458;48.958;8.284;2023-04-24T03:06:10;99310.13;;;13.31;78.69
30708;BME280;17458;48.958;8.284;2023-04-24T03:08:54;99313.78;;;13.36;77.70
30708;BME280;17458;48.958;8.284;2023-04-24T03:11:38;99320.31;;;13.12;77.92
30708;BME280;17458;48.958;8.284;2023-04-24T03:14:25;99317.59;;;13.47;77.68
30708;BME280;17458;48.958;8.284;2023-04-24T03:17:09;99316.31;;;13.30;77.89
30708;BME280;17458;48.958;8.284;2023-04-24T03:19:53;99311.63;;;13.20;78.10
30708;BME280;17458;48.958;8.284;2023-04-24T03:22:37;99311.94;;;13.32;78.20
30708;BME280;17458;48.958;8.284;2023-04-24T03:25:24;99329.84;;;13.39;77.63
30708;BME280;17458;48.958;8.284;2023-04-24T03:28:09;99337.81;;;13.37;77.54
30708;BME280;17458;48.958;8.284;2023-04-24T03:31:08;99349.97;;;13.25;77.76
30708;BME280;17458;48.958;8.284;2023-04-24T03:33:54;99343.50;;;13.53;76.80
30708;BME280;17458;48.958;8.284;2023-04-24T03:36:39;99348.09;;;13.60;75.81
30708;BME280;17458;48.958;8.284;2023-04-24T03:39:25;99352.59;;;13.62;75.24
30708;BME280;17458;48.958;8.284;2023-04-24T03:42:12;99345.38;;;13.57;74.76
30708;BME280;17458;48.958;8.284;2023-04-24T03:45:07;99351.50;;;13.53;74.96
30708;BME280;17458;48.958;8.284;2023-04-24T03:47:54;99363.16;;;13.58;74.05
30708;BME280;17458;48.958;8.284;2023-04-24T03:50:39;99361.41;;;13.19;74.48
30708;BME280;17458;48.958;8.284;2023-04-24T03:53:25;99358.03;;;13.28;72.96
30708;BME280;17458;48.958;8.284;2023-04-24T03:56:10;99361.66;;;13.30;72.62
30708;BME280;17458;48.958;8.284;2023-04-24T03:58:54;99372.97;;;13.21;73.04
30708;BME280;17458;48.958;8.284;2023-04-24T04:01:39;99380.28;;;13.28;73.20
30708;BME280;17458;48.958;8.284;2023-04-24T04:04:31;99389.75;;;13.16;74.67
30708;BME280;17458;48.958;8.284;2023-04-24T04:07:15;99387.56;;;13.01;74.86
30708;BME280;17458;48.958;8.284;2023-04-24T04:09:59;99391.19;;;12.68;74.37
30708;BME280;17458;48.958;8.284;2023-04-24T04:12:43;99398.19;;;12.65;74.58
30708;BME280;17458;48.958;8.284;2023-04-24T04:15:28;99405.03;;;12.55;73.75
30708;BME280;17458;48.958;8.284;2023-04-24T04:18:13;99398.66;;;12.49;73.13
30708;BME280;17458;48.958;8.284;2023-04-24T04:20:57;99410.50;;;12.28;73.99
30708;BME280;17458;48.958;8.284;2023-04-24T04:23:42;99419.44;;;12.30;75.32
30708;BME280;17458;48.958;8.284;2023-04-24T04:26:39;99414.28;;;12.36;74.22
30708;BME280;17458;48.958;8.284;2023-04-24T04:29:27;99421.06;;;12.25;74.07
30708;BME280;17458;48.958;8.284;2023-04-24T04:32:11;99426.63;;;12.33;73.14
30708;BME280;17458;48.958;8.284;2023-04-24T04:34:55;99429.13;;;12.28;73.35
30708;BME280;17458;48.958;8.284;2023-04-24T04:37:41;99423.91;;;12.31;73.33
30708;BME280;17458;48.958;8.284;2023-04-24T04:40:45;99439.53;;;12.19;74.44
30708;BME280;17458;48.958;8.284;2023-04-24T04:43:31;99436.22;;;12.28;73.41
30708;BME280;17458;48.958;8.284;2023-04-24T04:46:17;99443.94;;;12.50;72.78
30708;BME280;17458;48.958;8.284;2023-04-24T04:49:16;99437.72;;;12.83;71.80
30708;BME280;17458;48.958;8.284;2023-04-24T04:52:00;99435.97;;;12.83;71.31
30708;BME280;17458;48.958;8.284;2023-04-24T04:54:46;99443.13;;;12.53;72.21
30708;BME280;17458;48.958;8.284;2023-04-24T04:57:30;99451.97;;;12.52;72.00
30708;BME280;17458;48.958;8.284;2023-04-24T05:00:15;99451.13;;;12.53;71.42
30708;BME280;17458;48.958;8.284;2023-04-24T05:03:05;99464.47;;;12.86;70.07
30708;BME280;17458;48.958;8.284;2023-04-24T05:05:50;99452.25;;;13.28;69.63
30708;BME280;17458;48.958;8.284;2023-04-24T05:08:35;99457.44;;;13.58;67.22
30708;BME280;17458;48.958;8.284;2023-04-24T05:11:21;99455.41;;;13.86;66.75
30708;BME280;17458;48.958;8.284;2023-04-24T05:14:05;99470.59;;;14.29;66.25
30708;BME280;17458;48.958;8.284;2023-04-24T05:16:53;99467.34;;;14.43;65.74
30708;BME280;17458;48.958;8.284;2023-04-24T05:19:39;99461.69;;;14.72;65.77
30708;BME280;17458;48.958;8.284;2023-04-24T05:22:24;99479.06;;;14.50;66.32
30708;BME280;17458;48.958;8.284;2023-04-24T05:25:10;99481.47;;;14.39;65.58
30708;BME280;17458;48.958;8.284;2023-04-24T05:27:58;99482.44;;;14.01;67.44
30708;BME280;17458;48.958;8.284;2023-04-24T05:30:43;99481.63;;;13.66;68.95
30708;BME280;17458;48.958;8.284;2023-04-24T05:33:27;99493.03;;;13.98;68.77
30708;BME280;17458;48.958;8.284;2023-04-24T05:36:11;99493.69;;;13.50;70.39
30708;BME280;17458;48.958;8.284;2023-04-24T05:39:23;99499.69;;;13.41;69.27
30708;BME280;17458;48.958;8.284;2023-04-24T05:42:12;99496.16;;;13.09;70.12
30708;BME280;17458;48.958;8.284;2023-04-24T05:44:55;99499.03;;;13.16;69.14
30708;BME280;17458;48.958;8.284;2023-04-24T05:47:39;99499.59;;;13.04;68.56
30708;BME280;17458;48.958;8.284;2023-04-24T05:50:23;99500.38;;;13.33;67.82
30708;BME280;17458;48.958;8.284;2023-04-24T05:53:07;99496.91;;;13.37;67.45
30708;BME280;17458;48.958;8.284;2023-04-24T05:55:54;99503.81;;;13.29;68.17
30708;BME280;17458;48.958;8.284;2023-04-24T05:58:38;99508.94;;;13.21;67.17
30708;BME280;17458;48.958;8.284;2023-04-24T06:01:23;99522.38;;;13.59;67.74
30708;BME280;17458;48.958;8.284;2023-04-24T06:04:15;99529.84;;;13.39;67.58
30708;BME280;17458;48.958;8.284;2023-04-24T06:06:59;99522.28;;;13.21;67.60
30708;BME280;17458;48.958;8.284;2023-04-24T06:09:43;99521.72;;;13.33;68.36
30708;BME280;17458;48.958;8.284;2023-04-24T06:12:28;99529.47;;;13.24;67.83
30708;BME280;17458;48.958;8.284;2023-04-24T06:15:20;99533.25;;;13.32;68.52
30708;BME280;17458;48.958;8.284;2023-04-24T06:18:10;99542.97;;;13.30;67.41
30708;BME280;17458;48.958;8.284;2023-04-24T06:20:55;99534.75;;;13.57;66.97
30708;BME280;17458;48.958;8.284;2023-04-24T06:23:41;99536.00;;;13.36;66.39
30708;BME280;17458;48.958;8.284;2023-04-24T06:26:26;99538.63;;;13.02;66.75
30708;BME280;17458;48.958;8.284;2023-04-24T06:29:10;99538.16;;;13.51;66.04
30708;BME280;17458;48.958;8.284;2023-04-24T06:31:54;99543.56;;;13.20;66.17
30708;BME280;17458;48.958;8.284;2023-04-24T06:34:38;99548.06;;;13.55;65.55
30708;BME280;17458;48.958;8.284;2023-04-24T06:37:22;99550.91;;;13.63;64.73
30708;BME280;17458;48.958;8.284;2023-04-24T06:40:07;99541.50;;;13.42;64.59
30708;BME280;17458;48.958;8.284;2023-04-24T06:42:52;99546.66;;;13.36;64.64
30708;BME280;17458;48.958;8.284;2023-04-24T06:45:37;99542.84;;;13.25;65.51
30708;BME280;17458;48.958;8.284;2023-04-24T06:48:23;99551.03;;;13.67;62.96
30708;BME280;17458;48.958;8.284;2023-04-24T06:51:07;99544.13;;;13.77;63.60
30708;BME280;17458;48.958;8.284;2023-04-24T06:53:55;99550.25;;;13.71;62.03
30708;BME280;17458;48.958;8.284;2023-04-24T06:56:42;99545.31;;;13.88;60.93
30708;BME280;17458;48.958;8.284;2023-04-24T06:59:26;99547.19;;;13.56;61.71
30708;BME280;17458;48.958;8.284;2023-04-24T07:02:11;99548.00;;;13.54;62.32
30708;BME280;17458;48.958;8.284;2023-04-24T07:04:55;99546.25;;;13.92;61.03
30708;BME280;17458;48.958;8.284;2023-04-24T07:07:40;99549.53;;;14.16;60.78
30708;BME280;17458;48.958;8.284;2023-04-24T07:10:25;99548.66;;;14.56;59.51
30708;BME280;17458;48.958;8.284;2023-04-24T07:13:12;99556.44;;;14.45;58.58
30708;BME280;17458;48.958;8.284;2023-04-24T07:15:56;99566.19;;;14.85;58.84
30708;BME280;17458;48.958;8.284;2023-04-24T07:18:40;99571.63;;;14.48;57.95
30708;BME280;17458;48.958;8.284;2023-04-24T07:21:24;99577.50;;;14.74;57.35
30708;BME280;17458;48.958;8.284;2023-04-24T07:24:09;99581.59;;;14.99;56.00
30708;BME280;17458;48.958;8.284;2023-04-24T07:26:54;99581.97;;;15.18;55.04
30708;BME280;17458;48.958;8.284;2023-04-24T07:29:38;99586.09;;;15.48;54.34
30708;BME280;17458;48.958;8.284;2023-04-24T07:32:23;99580.09;;;15.13;54.70
30708;BME280;17458;48.958;8.284;2023-04-24T07:35:07;99587.03;;;15.02;54.12
30708;BME280;17458;48.958;8.284;2023-04-24T07:37:53;99603.66;;;14.48;55.63
30708;BME280;17458;48.958;8.284;2023-04-24T07:40:38;99602.09;;;13.82;56.42
30708;BME280;17458;48.958;8.284;2023-04-24T07:43:22;99610.84;;;13.77;56.21
30708;BME280;17458;48.958;8.284;2023-04-24T07:46:08;99611.50;;;14.03;58.34
30708;BME280;17458;48.958;8.284;2023-04-24T07:48:52;99620.78;;;13.82;58.74
30708;BME280;17458;48.958;8.284;2023-04-24T07:51:37;99628.00;;;13.87;58.56
30708;BME280;17458;48.958;8.284;2023-04-24T07:54:21;99628.06;;;14.26;58.68
30708;BME280;17458;48.958;8.284;2023-04-24T07:57:05;99637.81;;;13.88;58.76
30708;BME280;17458;48.958;8.284;2023-04-24T07:59:51;99633.03;;;14.46;58.67
30708;BME280;17458;48.958;8.284;2023-04-24T08:02:35;99637.53;;;14.49;58.43
30708;BME280;17458;48.958;8.284;2023-04-24T08:05:19;99635.28;;;14.30;59.50
30708;BME280;17458;48.958;8.284;2023-04-24T08:08:03;99637.97;;;14.30;59.14
30708;BME280;17458;48.958;8.284;2023-04-24T08:10:47;99644.31;;;14.74;58.59
30708;BME280;17458;48.958;8.284;2023-04-24T08:13:31;99657.72;;;14.00;60.65
30708;BME280;17458;48.958;8.284;2023-04-24T08:16:15;99672.44;;;13.52;62.58
30708;BME280;17458;48.958;8.284;2023-04-24T08:18:59;99680.69;;;12.99;65.49
30708;BME280;17458;48.958;8.284;2023-04-24T08:21:43;99688.19;;;13.12;65.10
30708;BME280;17458;48.958;8.284;2023-04-24T08:24:27;99699.00;;;12.87;67.97
30708;BME280;17458;48.958;8.284;2023-04-24T08:27:11;99706.69;;;12.78;68.04
30708;BME280;17458;48.958;8.284;2023-04-24T08:29:57;99688.63;;;12.68;69.15
30708;BME280;17458;48.958;8.284;2023-04-24T08:32:41;99688.53;;;12.95;68.71
30708;BME280;17458;48.958;8.284;2023-04-24T08:35:25;99684.88;;;12.90;69.68
30708;BME280;17458;48.958;8.284;2023-04-24T08:38:10;99690.91;;;12.84;67.44
30708;BME280;17458;48.958;8.284;2023-04-24T08:40:54;99685.34;;;12.76;68.05
30708;BME280;17458;48.958;8.284;2023-04-24T08:43:40;99680.63;;;13.58;67.65
30708;BME280;17458;48.958;8.284;2023-04-24T08:46:24;99685.09;;;13.93;67.11
30708;BME280;17458;48.958;8.284;2023-04-24T08:49:08;99688.88;;;14.73;65.12
30708;BME280;17458;48.958;8.284;2023-04-24T08:51:52;99682.66;;;14.74;63.48
30708;BME280;17458;48.958;8.284;2023-04-24T08:54:36;99693.22;;;14.68;60.87
30708;BME280;17458;48.958;8.284;2023-04-24T08:57:22;99695.13;;;15.16;59.20
30708;BME280;17458;48.958;8.284;2023-04-24T09:00:09;99695.25;;;15.20;57.67
30708;BME280;17458;48.958;8.284;2023-04-24T09:02:53;99696.34;;;14.50;58.97
30708;BME280;17458;48.958;8.284;2023-04-24T09:05:38;99714.53;;;14.65;57.83
30708;BME280;17458;48.958;8.284;2023-04-24T09:08:25;99722.66;;;14.70;58.05
30708;BME280;17458;48.958;8.284;2023-04-24T09:11:10;99713.84;;;14.75;57.74
30708;BME280;17458;48.958;8.284;2023-04-24T09:13:55;99726.44;;;14.79;56.25
30708;BME280;17458;48.958;8.284;2023-04-24T09:16:39;99722.50;;;15.01;55.13
30708;BME280;17458;48.958;8.284;2023-04-24T09:19:24;99723.81;;;15.21;54.64
30708;BME280;17458;48.958;8.284;2023-04-24T09:22:09;99735.75;;;14.97;55.75
30708;BME280;17458;48.958;8.284;2023-04-24T09:25:02;99720.63;;;14.99;54.49
30708;BME280;17458;48.958;8.284;2023-04-24T09:27:47;99735.91;;;15.04;54.10
30708;BME280;17458;48.958;8.284;2023-04-24T09:30:31;99731.97;;;14.87;53.80
30708;BME280;17458;48.958;8.284;2023-04-24T09:33:15;99744.63;;;14.96;53.79
30708;BME280;17458;48.958;8.284;2023-04-24T09:35:59;99736.84;;;13.98;54.72
30708;BME280;17458;48.958;8.284;2023-04-24T09:38:44;99736.63;;;14.24;56.11
30708;BME280;17458;48.958;8.284;2023-04-24T09:41:28;99736.00;;;14.70;53.80
30708;BME280;17458;48.958;8.284;2023-04-24T09:44:19;99744.84;;;14.67;53.76
30708;BME280;17458;48.958;8.284;2023-04-24T09:47:08;99741.13;;;14.61;52.96
30708;BME280;17458;48.958;8.284;2023-04-24T09:49:57;99744.41;;;14.85;53.26
30708;BME280;17458;48.958;8.284;2023-04-24T09:52:59;99748.66;;;15.17;53.64
30708;BME280;17458;48.958;8.284;2023-04-24T09:55:45;99739.59;;;15.09;52.65
30708;BME280;17458;48.958;8.284;2023-04-24T09:58:29;99742.09;;;15.03;52.61
30708;BME280;17458;48.958;8.284;2023-04-24T10:01:14;99749.25;;;15.45;53.31
30708;BME280;17458;48.958;8.284;2023-04-24T10:03:58;99750.28;;;15.51;52.42
30708;BME280;17458;48.958;8.284;2023-04-24T10:06:42;99741.81;;;15.29;52.88
30708;BME280;17458;48.958;8.284;2023-04-24T10:09:27;99750.16;;;15.45;53.36
30708;BME280;17458;48.958;8.284;2023-04-24T10:12:11;99766.63;;;15.23;53.56
30708;BME280;17458;48.958;8.284;2023-04-24T10:14:57;99757.84;;;14.89;51.44
30708;BME280;17458;48.958;8.284;2023-04-24T10:17:42;99763.25;;;14.93;53.47
30708;BME280;17458;48.958;8.284;2023-04-24T10:20:29;99765.50;;;14.74;52.93
30708;BME280;17458;48.958;8.284;2023-04-24T10:23:16;99768.78;;;14.63;53.66
30708;BME280;17458;48.958;8.284;2023-04-24T10:26:02;99770.09;;;14.42;54.50
30708;BME280;17458;48.958;8.284;2023-04-24T10:28:47;99781.56;;;14.76;53.11
30708;BME280;17458;48.958;8.284;2023-04-24T10:31:31;99771.63;;;14.69;53.54
30708;BME280;17458;48.958;8.284;2023-04-24T10:34:17;99781.31;;;14.65;52.01
30708;BME280;17458;48.958;8.284;2023-04-24T10:37:04;99776.50;;;14.50;53.25
30708;BME280;17458;48.958;8.284;2023-04-24T10:39:48;99781.34;;;14.32;54.73
30708;BME280;17458;48.958;8.284;2023-04-24T10:42:35;99778.44;;;14.56;53.51
30708;BME280;17458;48.958;8.284;2023-04-24T10:45:24;99788.31;;;14.26;55.79
30708;BME280;17458;48.958;8.284;2023-04-24T10:48:08;99781.41;;;14.01;55.17
30708;BME280;17458;48.958;8.284;2023-04-24T10:50:57;99782.81;;;13.87;55.87
30708;BME280;17458;48.958;8.284;2023-04-24T10:53:41;99788.81;;;13.79;56.12
30708;BME280;17458;48.958;8.284;2023-04-24T10:56:25;99791.00;;;14.60;54.89
30708;BME280;17458;48.958;8.284;2023-04-24T10:59:09;99793.31;;;14.13;54.58
30708;BME280;17458;48.958;8.284;2023-04-24T11:01:55;99798.44;;;14.39;54.15
30708;BME280;17458;48.958;8.284;2023-04-24T11:04:43;99809.34;;;14.45;54.72
30708;BME280;17458;48.958;8.284;2023-04-24T11:07:27;99812.31;;;14.57;53.42
30708;BME280;17458;48.958;8.284;2023-04-24T11:10:25;99812.16;;;14.87;52.32
30708;BME280;17458;48.958;8.284;2023-04-24T11:13:10;99819.06;;;15.15;52.38
30708;BME280;17458;48.958;8.284;2023-04-24T11:19:25;99820.72;;;14.74;52.94
30708;BME280;17458;48.958;8.284;2023-04-24T11:22:16;99818.88;;;14.70;53.25
30708;BME280;17458;48.958;8.284;2023-04-24T11:25:04;99823.06;;;14.27;57.16
30708;BME280;17458;48.958;8.284;2023-04-24T11:27:50;99816.50;;;14.14;58.95
30708;BME280;17458;48.958;8.284;2023-04-24T11:30:34;99831.69;;;13.54;61.59
30708;BME280;17458;48.958;8.284;2023-04-24T11:33:19;99837.81;;;13.52;62.22
30708;BME280;17458;48.958;8.284;2023-04-24T11:36:05;99851.16;;;13.52;63.57
30708;BME280;17458;48.958;8.284;2023-04-24T11:38:50;99853.91;;;13.55;64.79
30708;BME280;17458;48.958;8.284;2023-04-24T11:41:34;99849.78;;;13.09;66.33
30708;BME280;17458;48.958;8.284;2023-04-24T11:44:20;99849.63;;;13.60;66.79
30708;BME280;17458;48.958;8.284;2023-04-24T11:47:05;99849.28;;;13.79;66.38
30708;BME280;17458;48.958;8.284;2023-04-24T11:49:50;99853.16;;;13.59;67.27
30708;BME280;17458;48.958;8.284;2023-04-24T11:52:42;99852.50;;;13.97;64.43
30708;BME280;17458;48.958;8.284;2023-04-24T11:55:28;99849.41;;;14.13;63.97
30708;BME280;17458;48.958;8.284;2023-04-24T11:58:13;99856.22;;;14.35;63.96
30708;BME280;17458;48.958;8.284;2023-04-24T12:00:57;99856.28;;;14.70;63.87
30708;BME280;17458;48.958;8.284;2023-04-24T12:03:49;99859.44;;;14.89;64.64
30708;BME280;17458;48.958;8.284;2023-04-24T12:06:34;99850.63;;;15.31;62.30
30708;BME280;17458;48.958;8.284;2023-04-24T12:09:18;99853.50;;;15.01;60.82
30708;BME280;17458;48.958;8.284;2023-04-24T12:12:02;99849.31;;;14.42;61.14
30708;BME280;17458;48.958;8.284;2023-04-24T12:14:53;99856.25;;;14.68;60.32
30708;BME280;17458;48.958;8.284;2023-04-24T12:17:41;99864.38;;;14.74;59.01
30708;BME280;17458;48.958;8.284;2023-04-24T12:20:29;99864.91;;;14.94;59.04
30708;BME280;17458;48.958;8.284;2023-04-24T12:23:13;99859.75;;;15.03;59.04
30708;BME280;17458;48.958;8.284;2023-04-24T12:26:00;99856.72;;;15.63;57.07
30708;BME280;17458;48.958;8.284;2023-04-24T12:28:47;99861.44;;;15.75;55.16
30708;BME280;17458;48.958;8.284;2023-04-24T12:31:32;99847.72;;;15.58;55.24
30708;BME280;17458;48.958;8.284;2023-04-24T12:34:20;99847.91;;;15.28;54.99
30708;BME280;17458;48.958;8.284;2023-04-24T12:37:11;99833.44;;;15.20;56.14
30708;BME280;17458;48.958;8.284;2023-04-24T12:40:03;99836.41;;;15.73;54.79
30708;BME280;17458;48.958;8.284;2023-04-24T12:42:50;99838.16;;;16.16;53.04
30708;BME280;17458;48.958;8.284;2023-04-24T12:45:35;99825.44;;;16.51;51.49
30708;BME280;17458;48.958;8.284;2023-04-24T12:48:19;99839.13;;;15.74;54.05
30708;BME280;17458;48.958;8.284;2023-04-24T12:51:04;99829.22;;;16.14;53.12
30708;BME280;17458;48.958;8.284;2023-04-24T12:53:49;99833.34;;;16.45;53.13
30708;BME280;17458;48.958;8.284;2023-04-24T12:56:33;99836.44;;;15.74;53.33
30708;BME280;17458;48.958;8.284;2023-04-24T12:59:17;99839.72;;;16.03;53.35
30708;BME280;17458;48.958;8.284;2023-04-24T13:02:01;99841.94;;;16.25;52.94
30708;BME280;17458;48.958;8.284;2023-04-24T13:04:46;99831.28;;;16.30;51.98
30708;BME280;17458;48.958;8.284;2023-04-24T13:07:31;99845.03;;;16.00;51.86
30708;BME280;17458;48.958;8.284;2023-04-24T13:10:14;99840.59;;;15.60;52.51
30708;BME280;17458;48.958;8.284;2023-04-24T13:12:59;99832.81;;;16.62;52.69
30708;BME280;17458;48.958;8.284;2023-04-24T13:15:43;99839.84;;;16.57;51.37
30708;BME280;17458;48.958;8.284;2023-04-24T13:18:27;99840.75;;;16.10;50.34
30708;BME280;17458;48.958;8.284;2023-04-24T13:21:11;99845.63;;;16.79;49.95
30708;BME280;17458;48.958;8.284;2023-04-24T13:23:55;99845.34;;;16.63;52.23
30708;BME280;17458;48.958;8.284;2023-04-24T13:26:39;99836.78;;;16.36;52.09
30708;BME280;17458;48.958;8.284;2023-04-24T13:29:23;99839.63;;;16.95;52.18
30708;BME280;17458;48.958;8.284;2023-04-24T13:32:08;99831.88;;;17.15;50.95
30708;BME280;17458;48.958;8.284;2023-04-24T13:34:52;99819.56;;;16.72;50.54
30708;BME280;17458;48.958;8.284;2023-04-24T13:37:36;99819.81;;;16.87;51.44
30708;BME280;17458;48.958;8.284;2023-04-24T13:40:20;99818.84;;;16.80;51.46
30708;BME280;17458;48.958;8.284;2023-04-24T13:43:04;99812.50;;;16.28;51.15
30708;BME280;17458;48.958;8.284;2023-04-24T13:45:48;99818.84;;;16.32;50.72
30708;BME280;17458;48.958;8.284;2023-04-24T13:48:32;99813.19;;;15.70;52.25
30708;BME280;17458;48.958;8.284;2023-04-24T13:51:16;99812.50;;;15.80;51.51
30708;BME280;17458;48.958;8.284;2023-04-24T13:54:00;99814.91;;;15.68;52.46
30708;BME280;17458;48.958;8.284;2023-04-24T13:56:44;99812.34;;;15.34;52.49
30708;BME280;17458;48.958;8.284;2023-04-24T13:59:28;99812.44;;;15.38;52.72
30708;BME280;17458;48.958;8.284;2023-04-24T14:02:12;99810.78;;;15.45;52.65
30708;BME280;17458;48.958;8.284;2023-04-24T14:04:56;99825.63;;;14.92;53.25
30708;BME280;17458;48.958;8.284;2023-04-24T14:07:41;99828.06;;;15.20;54.65
30708;BME280;17458;48.958;8.284;2023-04-24T14:10:25;99824.28;;;15.49;56.21
30708;BME280;17458;48.958;8.284;2023-04-24T14:13:10;99820.91;;;15.56;56.81
30708;BME280;17458;48.958;8.284;2023-04-24T14:15:54;99812.59;;;15.85;54.55
30708;BME280;17458;48.958;8.284;2023-04-24T14:18:38;99812.66;;;15.89;53.36
30708;BME280;17458;48.958;8.284;2023-04-24T14:21:22;99802.41;;;15.67;53.22
30708;BME280;17458;48.958;8.284;2023-04-24T14:24:07;99808.38;;;15.98;52.04
30708;BME280;17458;48.958;8.284;2023-04-24T14:26:51;99800.94;;;16.28;51.00
30708;BME280;17458;48.958;8.284;2023-04-24T14:29:35;99797.91;;;17.15;49.98
30708;BME280;17458;48.958;8.284;2023-04-24T14:32:19;99796.31;;;16.71;48.78
30708;BME280;17458;48.958;8.284;2023-04-24T14:35:03;99804.81;;;16.99;50.57
30708;BME280;17458;48.958;8.284;2023-04-24T14:37:47;99801.34;;;16.04;51.28
30708;BME280;17458;48.958;8.284;2023-04-24T14:40:32;99802.50;;;16.18;51.19